Koyo Maru — JI3710 — position and weather

sailwx.info

Track history (hours):
 
Tides and Currents Weather Stations Pressure Air Temp Water Temp Dewpoint Dewpoint Depression Visibility Wind Speed Wind Dir Waves Ship Positions

Koyo Maru

Last reported at 2016-Jun-29 14:31 UTC. Time now 2016-Jul-01 11:45 UTC.
Position N 34°37' E 134°58'.

Length 125 m; draft 6 m.

Type: Cargo ship. MMSI: 431401953.

Date/timePositionNaut miles runAvg speedWind from/ knotsBaromVisibWave heightAir tempDewpointWater temp
2016-Jun-29 14:31N 34°37' E 134°58'1312.8
2016-Jun-29 13:31N 34°25' E 135°02'1717.2
2016-Jun-29 12:31N 34°08' E 134°59'2 0.1
2016-Jun-28 10:21N 34°07' E 134°59'1718.4
2016-Jun-28 09:27N 34°23' E 135°03'1718.8
2016-Jun-28 08:33N 34°34' E 135°18'6 2.9
2016-Jun-28 06:27N 34°35' E 135°26'0 0.0
2016-Jun-28 04:27N 34°35' E 135°26'0 0.0
2016-Jun-28 03:33N 34°35' E 135°26'0 0.0
2016-Jun-28 02:27N 34°35' E 135°26'0 0.0
2016-Jun-28 01:09N 34°35' E 135°26'0 0.0
2016-Jun-28 00:33N 34°35' E 135°26'7 6.6
2016-Jun-27 23:33N 34°35' E 135°18'1 1.0
2016-Jun-27 22:24N 34°34' E 135°16'0 0.0
2016-Jun-27 21:30N 34°34' E 135°16'0 0.0
2016-Jun-27 20:30N 34°34' E 135°16'0 0.0
2016-Jun-27 19:33N 34°34' E 135°16'1111.1
2016-Jun-27 18:33N 34°36' E 135°03'  
2016-Jun-25 10:33N 34°37' E 134°56'1616.5
2016-Jun-25 09:33N 34°36' E 135°16'8 6.7
2016-Jun-25 08:20N 34°35' E 135°26'0 0.0
2016-Jun-25 07:32N 34°35' E 135°26'0 0.0
2016-Jun-25 06:32N 34°35' E 135°26'0 0.0
2016-Jun-25 05:32N 34°35' E 135°26'0 0.0
2016-Jun-25 04:32N 34°35' E 135°26'0 0.0
2016-Jun-25 03:26N 34°35' E 135°26'0 0.0
2016-Jun-25 02:32N 34°35' E 135°26'0 0.0
2016-Jun-25 01:32N 34°35' E 135°26'0 0.0
2016-Jun-25 00:32N 34°35' E 135°26'0 0.0
2016-Jun-24 23:32N 34°35' E 135°26'0 0.0
2016-Jun-24 22:33N 34°35' E 135°26'7 7.1
2016-Jun-24 21:33N 34°35' E 135°17'0 0.1
2016-Jun-24 20:33N 34°35' E 135°17'0 0.1
2016-Jun-24 19:33N 34°35' E 135°17'0 0.1
2016-Jun-24 18:32N 34°35' E 135°17'1 0.8
2016-Jun-24 17:33N 34°35' E 135°16'1514.5
2016-Jun-24 16:31N 34°36' E 134°58'  
2016-Jun-21 11:14N 33°56' E 135°00'1217.0
2016-Jun-21 10:34N 34°08' E 134°59'1616.0
2016-Jun-21 09:33N 34°24' E 135°03'1817.9
2016-Jun-21 08:33N 34°35' E 135°20'5 4.1
2016-Jun-21 07:25N 34°35' E 135°26'0 0.0
2016-Jun-21 04:25N 34°35' E 135°26'0 0.0
2016-Jun-21 03:31N 34°35' E 135°26'0 0.0
2016-Jun-21 02:31N 34°35' E 135°26'0 0.0
2016-Jun-21 01:31N 34°35' E 135°26'0 0.0
2016-Jun-21 00:31N 34°35' E 135°26'0 0.0
2016-Jun-20 23:31N 34°35' E 135°26'0 0.1
2016-Jun-20 22:33N 34°35' E 135°26'7 6.6
2016-Jun-20 21:33N 34°35' E 135°17'0 0.0
2016-Jun-20 20:17N 34°35' E 135°17'0 0.1
2016-Jun-20 19:29N 34°35' E 135°17'8 8.2
2016-Jun-20 18:33N 34°35' E 135°08'  
Track history (hours):
 
Tides and Currents Weather Stations Pressure Air Temp Water Temp Dewpoint Dewpoint Depression Visibility Wind Speed Wind Dir Waves Ship Positions

Koyo Maru

Last reported at 2016-Jun-29 14:31 UTC. Time now 2016-Jul-01 11:45 UTC.
Position N 34°37' E 134°58'.

Length 125 m; draft 6 m.

Type: Cargo ship. MMSI: 431401953.

Date/timePositionNaut miles runAvg speedWind from/ knotsBaromVisibWave heightAir tempDewpointWater temp
2016-Jun-29 14:31N 34°37' E 134°58'1312.8
2016-Jun-29 13:31N 34°25' E 135°02'1717.2
2016-Jun-29 12:31N 34°08' E 134°59'2 0.1
2016-Jun-28 10:21N 34°07' E 134°59'1718.4
2016-Jun-28 09:27N 34°23' E 135°03'1718.8
2016-Jun-28 08:33N 34°34' E 135°18'6 2.9
2016-Jun-28 06:27N 34°35' E 135°26'0 0.0
2016-Jun-28 04:27N 34°35' E 135°26'0 0.0
2016-Jun-28 03:33N 34°35' E 135°26'0 0.0
2016-Jun-28 02:27N 34°35' E 135°26'0 0.0
2016-Jun-28 01:09N 34°35' E 135°26'0 0.0
2016-Jun-28 00:33N 34°35' E 135°26'7 6.6
2016-Jun-27 23:33N 34°35' E 135°18'1 1.0
2016-Jun-27 22:24N 34°34' E 135°16'0 0.0
2016-Jun-27 21:30N 34°34' E 135°16'0 0.0
2016-Jun-27 20:30N 34°34' E 135°16'0 0.0
2016-Jun-27 19:33N 34°34' E 135°16'1111.1
2016-Jun-27 18:33N 34°36' E 135°03'  
2016-Jun-25 10:33N 34°37' E 134°56'1616.5
2016-Jun-25 09:33N 34°36' E 135°16'8 6.7
2016-Jun-25 08:20N 34°35' E 135°26'0 0.0
2016-Jun-25 07:32N 34°35' E 135°26'0 0.0
2016-Jun-25 06:32N 34°35' E 135°26'0 0.0
2016-Jun-25 05:32N 34°35' E 135°26'0 0.0
2016-Jun-25 04:32N 34°35' E 135°26'0 0.0
2016-Jun-25 03:26N 34°35' E 135°26'0 0.0
2016-Jun-25 02:32N 34°35' E 135°26'0 0.0
2016-Jun-25 01:32N 34°35' E 135°26'0 0.0
2016-Jun-25 00:32N 34°35' E 135°26'0 0.0
2016-Jun-24 23:32N 34°35' E 135°26'0 0.0
2016-Jun-24 22:33N 34°35' E 135°26'7 7.1
2016-Jun-24 21:33N 34°35' E 135°17'0 0.1
2016-Jun-24 20:33N 34°35' E 135°17'0 0.1
2016-Jun-24 19:33N 34°35' E 135°17'0 0.1
2016-Jun-24 18:32N 34°35' E 135°17'1 0.8
2016-Jun-24 17:33N 34°35' E 135°16'1514.5
2016-Jun-24 16:31N 34°36' E 134°58'  
2016-Jun-21 11:14N 33°56' E 135°00'1217.0
2016-Jun-21 10:34N 34°08' E 134°59'1616.0
2016-Jun-21 09:33N 34°24' E 135°03'1817.9
2016-Jun-21 08:33N 34°35' E 135°20'5 4.1
2016-Jun-21 07:25N 34°35' E 135°26'0 0.0
2016-Jun-21 04:25N 34°35' E 135°26'0 0.0
2016-Jun-21 03:31N 34°35' E 135°26'0 0.0
2016-Jun-21 02:31N 34°35' E 135°26'0 0.0
2016-Jun-21 01:31N 34°35' E 135°26'0 0.0
2016-Jun-21 00:31N 34°35' E 135°26'0 0.0
2016-Jun-20 23:31N 34°35' E 135°26'0 0.1
2016-Jun-20 22:33N 34°35' E 135°26'7 6.6
2016-Jun-20 21:33N 34°35' E 135°17'0 0.0
2016-Jun-20 20:17N 34°35' E 135°17'0 0.1
2016-Jun-20 19:29N 34°35' E 135°17'8 8.2
2016-Jun-20 18:33N 34°35' E 135°08'  

Dump ship's entire track history